sensor_id;sensor_type;location;lat;lon;timestamp;P1;durP1;ratioP1;P2;durP2;ratioP2
51560;SDS011;37654;51.262;17.058;2023-04-07T00:00:58;24.90;;;12.40;;
51560;SDS011;37654;51.262;17.058;2023-04-07T00:03:24;23.17;;;14.30;;
51560;SDS011;37654;51.262;17.058;2023-04-07T00:05:50;31.58;;;15.40;;
51560;SDS011;37654;51.262;17.058;2023-04-07T00:08:15;23.40;;;12.95;;
51560;SDS011;37654;51.262;17.058;2023-04-07T00:10:41;27.48;;;12.68;;
51560;SDS011;37654;51.262;17.058;2023-04-07T00:13:06;26.58;;;16.20;;
51560;SDS011;37654;51.262;17.058;2023-04-07T00:15:31;29.83;;;15.63;;
51560;SDS011;37654;51.262;17.058;2023-04-07T00:17:57;24.48;;;15.73;;
51560;SDS011;37654;51.262;17.058;2023-04-07T00:20:22;24.50;;;14.18;;
51560;SDS011;37654;51.262;17.058;2023-04-07T00:22:48;28.02;;;14.45;;
51560;SDS011;37654;51.262;17.058;2023-04-07T00:25:13;26.13;;;17.27;;
51560;SDS011;37654;51.262;17.058;2023-04-07T00:27:39;32.50;;;13.90;;
51560;SDS011;37654;51.262;17.058;2023-04-07T00:30:05;26.73;;;15.70;;
51560;SDS011;37654;51.262;17.058;2023-04-07T00:32:31;30.27;;;14.52;;
51560;SDS011;37654;51.262;17.058;2023-04-07T00:34:57;28.17;;;15.43;;
51560;SDS011;37654;51.262;17.058;2023-04-07T00:37:22;26.27;;;15.20;;
51560;SDS011;37654;51.262;17.058;2023-04-07T00:39:49;27.85;;;15.13;;
51560;SDS011;37654;51.262;17.058;2023-04-07T00:42:15;30.52;;;14.75;;
51560;SDS011;37654;51.262;17.058;2023-04-07T00:44:41;27.25;;;15.70;;
51560;SDS011;37654;51.262;17.058;2023-04-07T00:47:06;25.10;;;14.90;;
51560;SDS011;37654;51.262;17.058;2023-04-07T00:49:32;23.65;;;14.55;;
51560;SDS011;37654;51.262;17.058;2023-04-07T00:51:57;29.63;;;16.35;;
51560;SDS011;37654;51.262;17.058;2023-04-07T00:54:23;26.65;;;15.57;;
51560;SDS011;37654;51.262;17.058;2023-04-07T00:56:49;27.42;;;16.77;;
51560;SDS011;37654;51.262;17.058;2023-04-07T00:59:15;29.13;;;16.80;;
51560;SDS011;37654;51.262;17.058;2023-04-07T01:01:45;31.00;;;15.68;;
51560;SDS011;37654;51.262;17.058;2023-04-07T01:04:12;32.05;;;15.98;;
51560;SDS011;37654;51.262;17.058;2023-04-07T01:06:47;29.65;;;15.20;;
51560;SDS011;37654;51.262;17.058;2023-04-07T01:09:17;27.02;;;16.25;;
51560;SDS011;37654;51.262;17.058;2023-04-07T01:11:47;30.40;;;16.27;;
51560;SDS011;37654;51.262;17.058;2023-04-07T01:14:20;30.25;;;20.90;;
51560;SDS011;37654;51.262;17.058;2023-04-07T01:16:50;32.03;;;21.60;;
51560;SDS011;37654;51.262;17.058;2023-04-07T01:21:59;30.73;;;17.83;;
51560;SDS011;37654;51.262;17.058;2023-04-07T01:27:11;32.28;;;16.65;;
51560;SDS011;37654;51.262;17.058;2023-04-07T01:29:44;31.75;;;16.15;;
51560;SDS011;37654;51.262;17.058;2023-04-07T01:32:12;28.70;;;15.77;;
51560;SDS011;37654;51.262;17.058;2023-04-07T01:34:38;34.47;;;21.42;;
51560;SDS011;37654;51.262;17.058;2023-04-07T01:37:05;28.73;;;16.83;;
51560;SDS011;37654;51.262;17.058;2023-04-07T01:39:32;28.77;;;16.27;;
51560;SDS011;37654;51.262;17.058;2023-04-07T01:41:59;32.20;;;15.77;;
51560;SDS011;37654;51.262;17.058;2023-04-07T01:44:28;35.05;;;21.60;;
51560;SDS011;37654;51.262;17.058;2023-04-07T01:46:56;30.55;;;17.00;;
51560;SDS011;37654;51.262;17.058;2023-04-07T01:49:23;30.52;;;17.83;;
51560;SDS011;37654;51.262;17.058;2023-04-07T01:51:51;30.25;;;17.65;;
51560;SDS011;37654;51.262;17.058;2023-04-07T01:54:17;31.65;;;18.45;;
51560;SDS011;37654;51.262;17.058;2023-04-07T01:56:43;33.22;;;17.08;;
51560;SDS011;37654;51.262;17.058;2023-04-07T01:59:09;31.48;;;17.35;;
51560;SDS011;37654;51.262;17.058;2023-04-07T02:01:35;31.67;;;20.23;;
51560;SDS011;37654;51.262;17.058;2023-04-07T02:04:02;33.95;;;16.95;;
51560;SDS011;37654;51.262;17.058;2023-04-07T02:06:44;28.85;;;18.08;;
51560;SDS011;37654;51.262;17.058;2023-04-07T02:09:14;30.20;;;14.75;;
51560;SDS011;37654;51.262;17.058;2023-04-07T02:11:41;28.65;;;14.90;;
51560;SDS011;37654;51.262;17.058;2023-04-07T02:14:08;24.50;;;13.05;;
51560;SDS011;37654;51.262;17.058;2023-04-07T02:16:35;28.73;;;15.02;;
51560;SDS011;37654;51.262;17.058;2023-04-07T02:19:01;28.55;;;19.13;;
51560;SDS011;37654;51.262;17.058;2023-04-07T02:21:28;34.13;;;21.63;;
51560;SDS011;37654;51.262;17.058;2023-04-07T02:23:55;28.17;;;17.52;;
51560;SDS011;37654;51.262;17.058;2023-04-07T02:26:20;29.38;;;18.88;;
51560;SDS011;37654;51.262;17.058;2023-04-07T02:28:46;33.75;;;15.38;;
51560;SDS011;37654;51.262;17.058;2023-04-07T02:31:11;30.42;;;16.55;;
51560;SDS011;37654;51.262;17.058;2023-04-07T02:33:37;29.20;;;16.00;;
51560;SDS011;37654;51.262;17.058;2023-04-07T02:36:03;30.77;;;14.23;;
51560;SDS011;37654;51.262;17.058;2023-04-07T02:38:29;26.23;;;14.30;;
51560;SDS011;37654;51.262;17.058;2023-04-07T02:40:54;28.45;;;15.82;;
51560;SDS011;37654;51.262;17.058;2023-04-07T02:43:20;27.90;;;15.57;;
51560;SDS011;37654;51.262;17.058;2023-04-07T02:45:45;34.65;;;16.58;;
51560;SDS011;37654;51.262;17.058;2023-04-07T02:48:11;31.00;;;15.95;;
51560;SDS011;37654;51.262;17.058;2023-04-07T02:50:36;32.10;;;16.48;;
51560;SDS011;37654;51.262;17.058;2023-04-07T02:53:02;34.38;;;18.40;;
51560;SDS011;37654;51.262;17.058;2023-04-07T02:55:27;35.50;;;18.83;;
51560;SDS011;37654;51.262;17.058;2023-04-07T02:57:52;31.38;;;16.73;;
51560;SDS011;37654;51.262;17.058;2023-04-07T03:00:18;40.80;;;19.50;;
51560;SDS011;37654;51.262;17.058;2023-04-07T03:02:43;33.58;;;19.20;;
51560;SDS011;37654;51.262;17.058;2023-04-07T03:05:09;31.98;;;18.58;;
51560;SDS011;37654;51.262;17.058;2023-04-07T03:07:34;39.25;;;19.98;;
51560;SDS011;37654;51.262;17.058;2023-04-07T03:10:00;43.47;;;22.83;;
51560;SDS011;37654;51.262;17.058;2023-04-07T03:12:25;43.83;;;26.02;;
51560;SDS011;37654;51.262;17.058;2023-04-07T03:14:51;34.90;;;18.58;;
51560;SDS011;37654;51.262;17.058;2023-04-07T03:17:16;37.55;;;20.40;;
51560;SDS011;37654;51.262;17.058;2023-04-07T03:19:41;31.23;;;18.20;;
51560;SDS011;37654;51.262;17.058;2023-04-07T03:22:07;36.30;;;19.00;;
51560;SDS011;37654;51.262;17.058;2023-04-07T03:24:32;30.40;;;17.70;;
51560;SDS011;37654;51.262;17.058;2023-04-07T03:26:58;35.50;;;16.65;;
51560;SDS011;37654;51.262;17.058;2023-04-07T03:29:23;31.70;;;17.65;;
51560;SDS011;37654;51.262;17.058;2023-04-07T03:31:48;33.97;;;18.58;;
51560;SDS011;37654;51.262;17.058;2023-04-07T03:34:14;30.00;;;17.80;;
51560;SDS011;37654;51.262;17.058;2023-04-07T03:36:39;32.85;;;17.88;;
51560;SDS011;37654;51.262;17.058;2023-04-07T03:39:05;36.00;;;18.63;;
51560;SDS011;37654;51.262;17.058;2023-04-07T03:41:30;29.52;;;15.85;;
51560;SDS011;37654;51.262;17.058;2023-04-07T03:43:56;34.67;;;17.70;;
51560;SDS011;37654;51.262;17.058;2023-04-07T03:46:21;26.30;;;15.10;;
51560;SDS011;37654;51.262;17.058;2023-04-07T03:48:47;27.63;;;15.95;;
51560;SDS011;37654;51.262;17.058;2023-04-07T03:51:13;29.65;;;14.35;;
51560;SDS011;37654;51.262;17.058;2023-04-07T03:53:39;27.00;;;13.98;;
51560;SDS011;37654;51.262;17.058;2023-04-07T03:56:04;27.40;;;15.48;;
51560;SDS011;37654;51.262;17.058;2023-04-07T03:58:30;26.75;;;14.65;;
51560;SDS011;37654;51.262;17.058;2023-04-07T04:00:55;30.92;;;15.40;;
51560;SDS011;37654;51.262;17.058;2023-04-07T04:03:21;26.50;;;15.20;;
51560;SDS011;37654;51.262;17.058;2023-04-07T04:05:46;24.40;;;13.10;;
51560;SDS011;37654;51.262;17.058;2023-04-07T04:08:12;27.20;;;12.98;;
51560;SDS011;37654;51.262;17.058;2023-04-07T04:10:37;24.98;;;14.40;;
51560;SDS011;37654;51.262;17.058;2023-04-07T04:13:02;24.23;;;13.30;;
51560;SDS011;37654;51.262;17.058;2023-04-07T04:15:30;27.17;;;15.60;;
51560;SDS011;37654;51.262;17.058;2023-04-07T04:17:56;27.27;;;14.55;;
51560;SDS011;37654;51.262;17.058;2023-04-07T04:20:21;28.88;;;14.18;;
51560;SDS011;37654;51.262;17.058;2023-04-07T04:22:47;24.90;;;15.20;;
51560;SDS011;37654;51.262;17.058;2023-04-07T04:25:12;31.95;;;17.40;;
51560;SDS011;37654;51.262;17.058;2023-04-07T04:27:38;31.63;;;16.52;;
51560;SDS011;37654;51.262;17.058;2023-04-07T04:30:03;27.08;;;14.18;;
51560;SDS011;37654;51.262;17.058;2023-04-07T04:32:29;28.23;;;14.25;;
51560;SDS011;37654;51.262;17.058;2023-04-07T04:34:55;27.13;;;14.05;;
51560;SDS011;37654;51.262;17.058;2023-04-07T04:37:20;26.42;;;15.52;;
51560;SDS011;37654;51.262;17.058;2023-04-07T04:39:46;26.48;;;13.63;;
51560;SDS011;37654;51.262;17.058;2023-04-07T04:42:11;28.48;;;15.60;;
51560;SDS011;37654;51.262;17.058;2023-04-07T04:44:36;27.05;;;15.15;;
51560;SDS011;37654;51.262;17.058;2023-04-07T04:47:02;27.60;;;15.30;;
51560;SDS011;37654;51.262;17.058;2023-04-07T04:49:27;27.83;;;15.43;;
51560;SDS011;37654;51.262;17.058;2023-04-07T04:51:53;26.70;;;13.90;;
51560;SDS011;37654;51.262;17.058;2023-04-07T04:54:18;26.17;;;14.13;;
51560;SDS011;37654;51.262;17.058;2023-04-07T04:56:43;27.63;;;13.40;;
51560;SDS011;37654;51.262;17.058;2023-04-07T04:59:09;31.67;;;14.85;;
51560;SDS011;37654;51.262;17.058;2023-04-07T05:01:34;26.08;;;13.02;;
51560;SDS011;37654;51.262;17.058;2023-04-07T05:04:00;22.80;;;12.75;;
51560;SDS011;37654;51.262;17.058;2023-04-07T05:06:26;26.63;;;13.48;;
51560;SDS011;37654;51.262;17.058;2023-04-07T05:08:52;25.48;;;13.88;;
51560;SDS011;37654;51.262;17.058;2023-04-07T05:11:17;30.80;;;13.52;;
51560;SDS011;37654;51.262;17.058;2023-04-07T05:13:43;29.83;;;14.55;;
51560;SDS011;37654;51.262;17.058;2023-04-07T05:16:08;24.58;;;13.95;;
51560;SDS011;37654;51.262;17.058;2023-04-07T05:18:33;26.20;;;12.52;;
51560;SDS011;37654;51.262;17.058;2023-04-07T05:20:59;26.83;;;13.98;;
51560;SDS011;37654;51.262;17.058;2023-04-07T05:23:26;27.38;;;12.65;;
51560;SDS011;37654;51.262;17.058;2023-04-07T05:25:51;26.52;;;12.23;;
51560;SDS011;37654;51.262;17.058;2023-04-07T05:28:17;24.13;;;12.73;;
51560;SDS011;37654;51.262;17.058;2023-04-07T05:30:42;28.23;;;13.98;;
51560;SDS011;37654;51.262;17.058;2023-04-07T05:33:08;31.90;;;15.15;;
51560;SDS011;37654;51.262;17.058;2023-04-07T05:35:33;31.73;;;15.10;;
51560;SDS011;37654;51.262;17.058;2023-04-07T05:37:59;31.88;;;13.63;;
51560;SDS011;37654;51.262;17.058;2023-04-07T05:40:24;27.13;;;14.38;;
51560;SDS011;37654;51.262;17.058;2023-04-07T05:42:50;26.10;;;13.65;;
51560;SDS011;37654;51.262;17.058;2023-04-07T05:45:15;26.27;;;14.68;;
51560;SDS011;37654;51.262;17.058;2023-04-07T05:47:41;25.52;;;13.45;;
51560;SDS011;37654;51.262;17.058;2023-04-07T05:50:06;28.20;;;13.32;;
51560;SDS011;37654;51.262;17.058;2023-04-07T05:52:32;26.88;;;15.23;;
51560;SDS011;37654;51.262;17.058;2023-04-07T05:54:58;27.17;;;14.32;;
51560;SDS011;37654;51.262;17.058;2023-04-07T05:57:24;27.75;;;14.18;;
51560;SDS011;37654;51.262;17.058;2023-04-07T05:59:51;29.90;;;15.05;;
51560;SDS011;37654;51.262;17.058;2023-04-07T06:02:16;34.30;;;16.55;;
51560;SDS011;37654;51.262;17.058;2023-04-07T06:04:42;27.23;;;14.93;;
51560;SDS011;37654;51.262;17.058;2023-04-07T06:07:07;26.15;;;14.30;;
51560;SDS011;37654;51.262;17.058;2023-04-07T06:09:33;24.48;;;13.85;;
51560;SDS011;37654;51.262;17.058;2023-04-07T06:11:58;28.67;;;15.00;;
51560;SDS011;37654;51.262;17.058;2023-04-07T06:14:25;27.98;;;14.45;;
51560;SDS011;37654;51.262;17.058;2023-04-07T06:16:50;27.52;;;13.20;;
51560;SDS011;37654;51.262;17.058;2023-04-07T06:19:16;26.35;;;13.63;;
51560;SDS011;37654;51.262;17.058;2023-04-07T06:21:41;24.20;;;12.73;;
51560;SDS011;37654;51.262;17.058;2023-04-07T06:24:07;25.02;;;12.93;;
51560;SDS011;37654;51.262;17.058;2023-04-07T06:26:32;31.73;;;14.13;;
51560;SDS011;37654;51.262;17.058;2023-04-07T06:28:58;27.23;;;13.07;;
51560;SDS011;37654;51.262;17.058;2023-04-07T06:31:23;28.95;;;14.27;;
51560;SDS011;37654;51.262;17.058;2023-04-07T06:33:50;33.28;;;16.98;;
51560;SDS011;37654;51.262;17.058;2023-04-07T06:36:15;34.22;;;17.88;;
51560;SDS011;37654;51.262;17.058;2023-04-07T06:38:41;29.15;;;14.07;;
51560;SDS011;37654;51.262;17.058;2023-04-07T06:41:07;26.60;;;13.02;;
51560;SDS011;37654;51.262;17.058;2023-04-07T06:43:36;22.77;;;12.40;;
51560;SDS011;37654;51.262;17.058;2023-04-07T06:46:02;25.05;;;13.40;;
51560;SDS011;37654;51.262;17.058;2023-04-07T06:48:27;30.40;;;15.57;;
51560;SDS011;37654;51.262;17.058;2023-04-07T06:50:53;27.92;;;14.75;;
51560;SDS011;37654;51.262;17.058;2023-04-07T06:53:18;29.00;;;15.80;;
51560;SDS011;37654;51.262;17.058;2023-04-07T06:55:44;30.15;;;16.45;;
51560;SDS011;37654;51.262;17.058;2023-04-07T06:58:09;29.08;;;15.68;;
51560;SDS011;37654;51.262;17.058;2023-04-07T07:00:35;32.15;;;16.27;;
51560;SDS011;37654;51.262;17.058;2023-04-07T07:03:00;25.33;;;14.52;;
51560;SDS011;37654;51.262;17.058;2023-04-07T07:05:26;25.55;;;14.38;;
51560;SDS011;37654;51.262;17.058;2023-04-07T07:07:52;27.92;;;14.65;;
51560;SDS011;37654;51.262;17.058;2023-04-07T07:10:18;28.48;;;15.40;;
51560;SDS011;37654;51.262;17.058;2023-04-07T07:12:47;28.00;;;16.00;;
51560;SDS011;37654;51.262;17.058;2023-04-07T07:15:13;25.02;;;14.57;;
51560;SDS011;37654;51.262;17.058;2023-04-07T07:17:38;28.75;;;14.98;;
51560;SDS011;37654;51.262;17.058;2023-04-07T07:20:04;28.05;;;14.80;;
51560;SDS011;37654;51.262;17.058;2023-04-07T07:22:30;26.20;;;15.02;;
51560;SDS011;37654;51.262;17.058;2023-04-07T07:24:55;26.25;;;14.00;;
51560;SDS011;37654;51.262;17.058;2023-04-07T07:27:21;30.75;;;15.55;;
51560;SDS011;37654;51.262;17.058;2023-04-07T07:29:46;24.40;;;13.73;;
51560;SDS011;37654;51.262;17.058;2023-04-07T07:32:12;24.00;;;12.20;;
51560;SDS011;37654;51.262;17.058;2023-04-07T07:34:37;19.65;;;11.98;;
51560;SDS011;37654;51.262;17.058;2023-04-07T07:37:02;23.25;;;13.77;;
51560;SDS011;37654;51.262;17.058;2023-04-07T07:39:28;24.88;;;13.77;;
51560;SDS011;37654;51.262;17.058;2023-04-07T07:41:54;22.75;;;12.70;;
51560;SDS011;37654;51.262;17.058;2023-04-07T07:44:19;24.65;;;13.73;;
51560;SDS011;37654;51.262;17.058;2023-04-07T07:46:46;22.77;;;13.15;;
51560;SDS011;37654;51.262;17.058;2023-04-07T07:49:12;25.92;;;13.07;;
51560;SDS011;37654;51.262;17.058;2023-04-07T07:51:38;21.38;;;12.73;;
51560;SDS011;37654;51.262;17.058;2023-04-07T07:54:03;20.40;;;11.38;;
51560;SDS011;37654;51.262;17.058;2023-04-07T07:56:29;18.40;;;11.98;;
51560;SDS011;37654;51.262;17.058;2023-04-07T07:58:54;19.60;;;11.00;;
51560;SDS011;37654;51.262;17.058;2023-04-07T08:01:20;21.77;;;11.23;;
51560;SDS011;37654;51.262;17.058;2023-04-07T08:03:45;20.27;;;11.75;;
51560;SDS011;37654;51.262;17.058;2023-04-07T08:06:11;22.27;;;12.50;;
51560;SDS011;37654;51.262;17.058;2023-04-07T08:08:37;21.23;;;12.10;;
51560;SDS011;37654;51.262;17.058;2023-04-07T08:11:02;20.80;;;11.50;;
51560;SDS011;37654;51.262;17.058;2023-04-07T08:13:28;22.92;;;12.18;;
51560;SDS011;37654;51.262;17.058;2023-04-07T08:15:53;20.60;;;11.88;;
51560;SDS011;37654;51.262;17.058;2023-04-07T08:18:19;20.38;;;11.25;;
51560;SDS011;37654;51.262;17.058;2023-04-07T08:20:45;24.38;;;13.38;;
51560;SDS011;37654;51.262;17.058;2023-04-07T08:23:11;24.40;;;14.02;;
51560;SDS011;37654;51.262;17.058;2023-04-07T08:25:36;25.38;;;14.02;;
51560;SDS011;37654;51.262;17.058;2023-04-07T08:28:03;23.77;;;13.10;;
51560;SDS011;37654;51.262;17.058;2023-04-07T08:30:29;22.70;;;11.82;;
51560;SDS011;37654;51.262;17.058;2023-04-07T08:32:55;40.58;;;19.05;;
51560;SDS011;37654;51.262;17.058;2023-04-07T08:35:20;34.03;;;17.73;;
51560;SDS011;37654;51.262;17.058;2023-04-07T08:37:46;43.75;;;22.00;;
51560;SDS011;37654;51.262;17.058;2023-04-07T08:40:12;38.85;;;21.17;;
51560;SDS011;37654;51.262;17.058;2023-04-07T08:42:40;22.52;;;13.30;;
51560;SDS011;37654;51.262;17.058;2023-04-07T08:45:07;22.98;;;11.85;;
51560;SDS011;37654;51.262;17.058;2023-04-07T08:47:34;21.90;;;11.63;;
51560;SDS011;37654;51.262;17.058;2023-04-07T08:50:07;21.20;;;12.02;;
51560;SDS011;37654;51.262;17.058;2023-04-07T08:52:41;20.27;;;10.95;;
51560;SDS011;37654;51.262;17.058;2023-04-07T08:55:12;19.80;;;11.07;;
51560;SDS011;37654;51.262;17.058;2023-04-07T08:57:38;19.85;;;11.65;;
51560;SDS011;37654;51.262;17.058;2023-04-07T09:00:05;21.42;;;12.65;;
51560;SDS011;37654;51.262;17.058;2023-04-07T09:02:40;21.10;;;12.70;;
51560;SDS011;37654;51.262;17.058;2023-04-07T09:05:09;21.95;;;11.80;;
51560;SDS011;37654;51.262;17.058;2023-04-07T09:07:36;23.88;;;13.68;;
51560;SDS011;37654;51.262;17.058;2023-04-07T09:10:04;25.42;;;12.60;;
51560;SDS011;37654;51.262;17.058;2023-04-07T09:12:31;19.33;;;10.73;;
51560;SDS011;37654;51.262;17.058;2023-04-07T09:14:57;19.95;;;11.48;;
51560;SDS011;37654;51.262;17.058;2023-04-07T09:17:23;21.00;;;12.18;;
51560;SDS011;37654;51.262;17.058;2023-04-07T09:19:55;22.17;;;12.25;;
51560;SDS011;37654;51.262;17.058;2023-04-07T09:25:13;18.85;;;11.48;;
51560;SDS011;37654;51.262;17.058;2023-04-07T09:27:39;21.83;;;12.10;;
51560;SDS011;37654;51.262;17.058;2023-04-07T09:30:09;19.58;;;11.20;;
51560;SDS011;37654;51.262;17.058;2023-04-07T09:32:37;23.75;;;12.75;;
51560;SDS011;37654;51.262;17.058;2023-04-07T09:35:02;27.27;;;13.68;;
51560;SDS011;37654;51.262;17.058;2023-04-07T09:37:28;23.20;;;12.07;;
51560;SDS011;37654;51.262;17.058;2023-04-07T09:39:53;19.35;;;11.75;;
51560;SDS011;37654;51.262;17.058;2023-04-07T09:42:19;23.08;;;12.15;;
51560;SDS011;37654;51.262;17.058;2023-04-07T09:44:45;20.98;;;12.10;;
51560;SDS011;37654;51.262;17.058;2023-04-07T09:47:11;24.33;;;12.55;;
51560;SDS011;37654;51.262;17.058;2023-04-07T09:52:17;26.83;;;13.40;;
51560;SDS011;37654;51.262;17.058;2023-04-07T09:54:45;25.48;;;12.25;;
51560;SDS011;37654;51.262;17.058;2023-04-07T09:57:11;23.35;;;12.90;;
51560;SDS011;37654;51.262;17.058;2023-04-07T09:59:38;23.25;;;13.10;;
51560;SDS011;37654;51.262;17.058;2023-04-07T10:02:06;23.25;;;12.75;;
51560;SDS011;37654;51.262;17.058;2023-04-07T10:04:33;22.10;;;12.40;;
51560;SDS011;37654;51.262;17.058;2023-04-07T10:06:59;23.10;;;13.45;;
51560;SDS011;37654;51.262;17.058;2023-04-07T10:09:28;24.88;;;11.65;;
51560;SDS011;37654;51.262;17.058;2023-04-07T10:11:54;23.20;;;12.77;;
51560;SDS011;37654;51.262;17.058;2023-04-07T10:14:21;25.30;;;12.93;;
51560;SDS011;37654;51.262;17.058;2023-04-07T10:16:50;23.45;;;12.52;;
51560;SDS011;37654;51.262;17.058;2023-04-07T10:19:16;26.60;;;14.00;;
51560;SDS011;37654;51.262;17.058;2023-04-07T10:21:43;28.17;;;14.85;;
51560;SDS011;37654;51.262;17.058;2023-04-07T10:26:53;35.45;;;17.90;;
51560;SDS011;37654;51.262;17.058;2023-04-07T10:29:22;24.05;;;14.18;;
51560;SDS011;37654;51.262;17.058;2023-04-07T10:31:49;29.90;;;16.42;;
51560;SDS011;37654;51.262;17.058;2023-04-07T10:34:15;30.08;;;15.95;;
51560;SDS011;37654;51.262;17.058;2023-04-07T10:39:38;27.70;;;15.32;;
51560;SDS011;37654;51.262;17.058;2023-04-07T10:42:05;27.83;;;15.20;;
51560;SDS011;37654;51.262;17.058;2023-04-07T10:47:06;34.10;;;15.07;;
51560;SDS011;37654;51.262;17.058;2023-04-07T10:49:32;31.05;;;16.75;;
51560;SDS011;37654;51.262;17.058;2023-04-07T10:58:20;27.08;;;15.80;;
51560;SDS011;37654;51.262;17.058;2023-04-07T11:00:40;27.63;;;14.95;;
51560;SDS011;37654;51.262;17.058;2023-04-07T11:03:11;27.98;;;15.48;;
51560;SDS011;37654;51.262;17.058;2023-04-07T11:05:41;40.40;;;18.75;;
51560;SDS011;37654;51.262;17.058;2023-04-07T11:08:07;29.88;;;16.50;;
51560;SDS011;37654;51.262;17.058;2023-04-07T11:10:33;30.67;;;17.30;;
51560;SDS011;37654;51.262;17.058;2023-04-07T11:13:00;26.95;;;14.50;;
51560;SDS011;37654;51.262;17.058;2023-04-07T11:15:36;30.30;;;16.48;;
51560;SDS011;37654;51.262;17.058;2023-04-07T11:18:05;22.88;;;12.57;;
51560;SDS011;37654;51.262;17.058;2023-04-07T11:23:19;33.25;;;15.90;;
51560;SDS011;37654;51.262;17.058;2023-04-07T11:25:48;23.63;;;13.35;;
51560;SDS011;37654;51.262;17.058;2023-04-07T11:28:14;29.65;;;14.75;;
51560;SDS011;37654;51.262;17.058;2023-04-07T11:30:49;46.67;;;23.45;;
51560;SDS011;37654;51.262;17.058;2023-04-07T11:33:20;25.05;;;13.60;;
51560;SDS011;37654;51.262;17.058;2023-04-07T11:35:47;26.75;;;14.27;;
51560;SDS011;37654;51.262;17.058;2023-04-07T11:38:14;27.40;;;14.43;;
51560;SDS011;37654;51.262;17.058;2023-04-07T11:40:40;31.83;;;15.30;;
51560;SDS011;37654;51.262;17.058;2023-04-07T11:43:19;25.27;;;12.43;;
51560;SDS011;37654;51.262;17.058;2023-04-07T11:48:32;26.92;;;14.05;;
51560;SDS011;37654;51.262;17.058;2023-04-07T11:50:59;23.70;;;13.35;;
51560;SDS011;37654;51.262;17.058;2023-04-07T11:53:26;24.98;;;13.02;;
51560;SDS011;37654;51.262;17.058;2023-04-07T11:56:02;25.15;;;13.40;;
51560;SDS011;37654;51.262;17.058;2023-04-07T11:58:31;30.25;;;16.20;;
51560;SDS011;37654;51.262;17.058;2023-04-07T12:00:58;30.33;;;18.23;;
51560;SDS011;37654;51.262;17.058;2023-04-07T12:03:29;27.48;;;14.75;;
51560;SDS011;37654;51.262;17.058;2023-04-07T12:05:55;31.15;;;16.35;;
51560;SDS011;37654;51.262;17.058;2023-04-07T12:08:21;30.45;;;15.57;;
51560;SDS011;37654;51.262;17.058;2023-04-07T12:11:04;32.88;;;17.08;;
51560;SDS011;37654;51.262;17.058;2023-04-07T12:13:30;35.03;;;19.35;;
51560;SDS011;37654;51.262;17.058;2023-04-07T12:15:57;49.60;;;27.85;;
51560;SDS011;37654;51.262;17.058;2023-04-07T12:18:23;24.67;;;13.30;;
51560;SDS011;37654;51.262;17.058;2023-04-07T12:20:49;26.40;;;14.55;;
51560;SDS011;37654;51.262;17.058;2023-04-07T12:23:15;23.30;;;12.30;;
51560;SDS011;37654;51.262;17.058;2023-04-07T12:25:40;25.38;;;13.43;;
51560;SDS011;37654;51.262;17.058;2023-04-07T12:28:06;29.98;;;14.55;;
51560;SDS011;37654;51.262;17.058;2023-04-07T12:30:31;36.65;;;18.30;;
51560;SDS011;37654;51.262;17.058;2023-04-07T12:32:57;30.40;;;16.58;;
51560;SDS011;37654;51.262;17.058;2023-04-07T12:35:22;59.55;;;26.85;;
51560;SDS011;37654;51.262;17.058;2023-04-07T12:37:48;54.63;;;27.70;;
51560;SDS011;37654;51.262;17.058;2023-04-07T12:40:13;53.80;;;24.65;;
51560;SDS011;37654;51.262;17.058;2023-04-07T12:42:40;28.40;;;16.75;;
51560;SDS011;37654;51.262;17.058;2023-04-07T12:45:06;26.08;;;16.58;;
51560;SDS011;37654;51.262;17.058;2023-04-07T12:47:32;28.88;;;15.60;;
51560;SDS011;37654;51.262;17.058;2023-04-07T12:49:58;30.15;;;17.25;;
51560;SDS011;37654;51.262;17.058;2023-04-07T12:52:23;38.22;;;22.85;;
51560;SDS011;37654;51.262;17.058;2023-04-07T12:54:49;42.13;;;22.73;;
51560;SDS011;37654;51.262;17.058;2023-04-07T12:57:15;36.50;;;19.98;;
51560;SDS011;37654;51.262;17.058;2023-04-07T12:59:40;28.88;;;15.27;;
51560;SDS011;37654;51.262;17.058;2023-04-07T13:02:06;27.80;;;13.85;;
51560;SDS011;37654;51.262;17.058;2023-04-07T13:04:32;36.65;;;17.02;;
51560;SDS011;37654;51.262;17.058;2023-04-07T13:06:59;34.90;;;18.67;;
51560;SDS011;37654;51.262;17.058;2023-04-07T13:09:26;26.13;;;14.30;;
51560;SDS011;37654;51.262;17.058;2023-04-07T13:11:52;33.90;;;16.33;;
51560;SDS011;37654;51.262;17.058;2023-04-07T13:14:17;27.35;;;14.32;;
51560;SDS011;37654;51.262;17.058;2023-04-07T13:16:43;25.95;;;13.68;;
51560;SDS011;37654;51.262;17.058;2023-04-07T13:19:08;34.35;;;17.80;;
51560;SDS011;37654;51.262;17.058;2023-04-07T13:21:34;25.25;;;13.63;;
51560;SDS011;37654;51.262;17.058;2023-04-07T13:24:00;23.33;;;12.77;;
51560;SDS011;37654;51.262;17.058;2023-04-07T13:26:25;35.08;;;17.70;;
51560;SDS011;37654;51.262;17.058;2023-04-07T13:28:52;28.65;;;16.35;;
51560;SDS011;37654;51.262;17.058;2023-04-07T13:31:17;31.90;;;17.15;;
51560;SDS011;37654;51.262;17.058;2023-04-07T13:33:43;35.00;;;17.98;;
51560;SDS011;37654;51.262;17.058;2023-04-07T13:36:09;30.45;;;16.35;;
51560;SDS011;37654;51.262;17.058;2023-04-07T13:38:34;27.33;;;15.82;;
51560;SDS011;37654;51.262;17.058;2023-04-07T13:41:01;29.20;;;15.77;;
51560;SDS011;37654;51.262;17.058;2023-04-07T13:43:27;29.98;;;15.00;;
51560;SDS011;37654;51.262;17.058;2023-04-07T13:45:53;29.17;;;14.68;;
51560;SDS011;37654;51.262;17.058;2023-04-07T13:48:20;34.38;;;18.48;;
51560;SDS011;37654;51.262;17.058;2023-04-07T13:50:46;34.85;;;19.63;;
51560;SDS011;37654;51.262;17.058;2023-04-07T13:53:11;32.25;;;16.10;;
51560;SDS011;37654;51.262;17.058;2023-04-07T13:55:37;33.80;;;16.30;;
51560;SDS011;37654;51.262;17.058;2023-04-07T13:58:03;28.98;;;14.48;;
51560;SDS011;37654;51.262;17.058;2023-04-07T14:00:28;23.42;;;12.63;;
51560;SDS011;37654;51.262;17.058;2023-04-07T14:02:54;26.27;;;13.60;;
51560;SDS011;37654;51.262;17.058;2023-04-07T14:05:22;29.08;;;13.80;;
51560;SDS011;37654;51.262;17.058;2023-04-07T14:07:48;32.33;;;15.50;;
51560;SDS011;37654;51.262;17.058;2023-04-07T14:10:14;28.80;;;14.95;;
51560;SDS011;37654;51.262;17.058;2023-04-07T14:12:40;25.65;;;12.75;;
51560;SDS011;37654;51.262;17.058;2023-04-07T14:15:06;28.88;;;14.20;;
51560;SDS011;37654;51.262;17.058;2023-04-07T14:17:32;30.33;;;15.05;;
51560;SDS011;37654;51.262;17.058;2023-04-07T14:19:57;29.25;;;14.60;;
51560;SDS011;37654;51.262;17.058;2023-04-07T14:22:23;28.42;;;14.20;;
51560;SDS011;37654;51.262;17.058;2023-04-07T14:24:48;26.50;;;13.65;;
51560;SDS011;37654;51.262;17.058;2023-04-07T14:27:13;27.23;;;13.68;;
51560;SDS011;37654;51.262;17.058;2023-04-07T14:29:44;22.73;;;12.13;;
51560;SDS011;37654;51.262;17.058;2023-04-07T14:32:11;31.20;;;15.40;;
51560;SDS011;37654;51.262;17.058;2023-04-07T14:34:36;25.67;;;13.38;;